sensor_id;sensor_type;location;lat;lon;timestamp;P1;durP1;ratioP1;P2;durP2;ratioP2
20067;SDS011;10194;50.824;7.134;2023-05-10T00:01:58;135.13;;;70.07;;
20067;SDS011;10194;50.824;7.134;2023-05-10T00:04:24;134.63;;;69.27;;
20067;SDS011;10194;50.824;7.134;2023-05-10T00:06:52;134.50;;;69.17;;
20067;SDS011;10194;50.824;7.134;2023-05-10T00:09:19;141.63;;;71.30;;
20067;SDS011;10194;50.824;7.134;2023-05-10T00:11:46;133.87;;;69.60;;
20067;SDS011;10194;50.824;7.134;2023-05-10T00:14:13;137.83;;;70.13;;
20067;SDS011;10194;50.824;7.134;2023-05-10T00:16:54;134.40;;;69.23;;
20067;SDS011;10194;50.824;7.134;2023-05-10T00:19:24;142.90;;;71.60;;
20067;SDS011;10194;50.824;7.134;2023-05-10T00:21:51;136.80;;;69.67;;
20067;SDS011;10194;50.824;7.134;2023-05-10T00:24:18;136.43;;;69.43;;
20067;SDS011;10194;50.824;7.134;2023-05-10T00:26:43;138.10;;;70.17;;
20067;SDS011;10194;50.824;7.134;2023-05-10T00:29:09;137.23;;;69.57;;
20067;SDS011;10194;50.824;7.134;2023-05-10T00:31:35;137.63;;;70.00;;
20067;SDS011;10194;50.824;7.134;2023-05-10T00:34:01;135.73;;;69.60;;
20067;SDS011;10194;50.824;7.134;2023-05-10T00:36:26;136.37;;;69.47;;
20067;SDS011;10194;50.824;7.134;2023-05-10T00:38:53;134.83;;;69.20;;
20067;SDS011;10194;50.824;7.134;2023-05-10T00:41:19;136.90;;;69.47;;
20067;SDS011;10194;50.824;7.134;2023-05-10T00:43:46;139.70;;;70.97;;
20067;SDS011;10194;50.824;7.134;2023-05-10T00:46:11;135.27;;;69.03;;
20067;SDS011;10194;50.824;7.134;2023-05-10T00:48:39;136.30;;;69.47;;
20067;SDS011;10194;50.824;7.134;2023-05-10T00:51:05;134.10;;;68.30;;
20067;SDS011;10194;50.824;7.134;2023-05-10T00:53:31;140.73;;;70.43;;
20067;SDS011;10194;50.824;7.134;2023-05-10T00:55:58;137.30;;;68.80;;
20067;SDS011;10194;50.824;7.134;2023-05-10T00:58:24;134.73;;;68.73;;
20067;SDS011;10194;50.824;7.134;2023-05-10T01:00:53;135.57;;;68.87;;
20067;SDS011;10194;50.824;7.134;2023-05-10T01:03:22;132.00;;;67.80;;
20067;SDS011;10194;50.824;7.134;2023-05-10T01:05:47;133.13;;;68.03;;
20067;SDS011;10194;50.824;7.134;2023-05-10T01:08:13;132.80;;;68.27;;
20067;SDS011;10194;50.824;7.134;2023-05-10T01:10:39;132.63;;;67.97;;
20067;SDS011;10194;50.824;7.134;2023-05-10T01:13:07;134.83;;;68.00;;
20067;SDS011;10194;50.824;7.134;2023-05-10T01:15:33;132.40;;;67.97;;
20067;SDS011;10194;50.824;7.134;2023-05-10T01:17:59;133.57;;;67.53;;
20067;SDS011;10194;50.824;7.134;2023-05-10T01:20:26;135.73;;;68.37;;
20067;SDS011;10194;50.824;7.134;2023-05-10T01:32:10;132.83;;;67.53;;
20067;SDS011;10194;50.824;7.134;2023-05-10T01:35:28;131.97;;;66.63;;
20067;SDS011;10194;50.824;7.134;2023-05-10T01:37:41;132.57;;;66.97;;
20067;SDS011;10194;50.824;7.134;2023-05-10T01:40:14;132.63;;;67.70;;
20067;SDS011;10194;50.824;7.134;2023-05-10T01:42:53;131.83;;;67.47;;
20067;SDS011;10194;50.824;7.134;2023-05-10T01:45:34;132.40;;;68.07;;
20067;SDS011;10194;50.824;7.134;2023-05-10T01:48:08;132.27;;;67.57;;
20067;SDS011;10194;50.824;7.134;2023-05-10T01:50:36;132.87;;;67.67;;
20067;SDS011;10194;50.824;7.134;2023-05-10T01:53:07;134.40;;;67.20;;
20067;SDS011;10194;50.824;7.134;2023-05-10T01:55:36;131.07;;;67.47;;
20067;SDS011;10194;50.824;7.134;2023-05-10T01:58:09;132.80;;;67.80;;
20067;SDS011;10194;50.824;7.134;2023-05-10T02:00:45;130.40;;;66.70;;
20067;SDS011;10194;50.824;7.134;2023-05-10T02:03:12;128.87;;;66.97;;
20067;SDS011;10194;50.824;7.134;2023-05-10T02:05:40;132.27;;;67.03;;
20067;SDS011;10194;50.824;7.134;2023-05-10T02:08:10;131.80;;;67.40;;
20067;SDS011;10194;50.824;7.134;2023-05-10T02:10:37;129.23;;;66.80;;
20067;SDS011;10194;50.824;7.134;2023-05-10T02:13:05;129.10;;;66.30;;
20067;SDS011;10194;50.824;7.134;2023-05-10T02:15:33;134.47;;;66.20;;
20067;SDS011;10194;50.824;7.134;2023-05-10T02:18:00;131.27;;;67.00;;
20067;SDS011;10194;50.824;7.134;2023-05-10T02:20:29;129.60;;;66.07;;
20067;SDS011;10194;50.824;7.134;2023-05-10T02:22:56;131.60;;;66.80;;
20067;SDS011;10194;50.824;7.134;2023-05-10T02:25:23;129.30;;;66.60;;
20067;SDS011;10194;50.824;7.134;2023-05-10T02:27:51;128.33;;;65.97;;
20067;SDS011;10194;50.824;7.134;2023-05-10T02:30:20;128.37;;;66.03;;
20067;SDS011;10194;50.824;7.134;2023-05-10T02:32:48;128.73;;;66.80;;
20067;SDS011;10194;50.824;7.134;2023-05-10T02:35:15;128.73;;;66.13;;
20067;SDS011;10194;50.824;7.134;2023-05-10T02:37:41;129.90;;;67.43;;
20067;SDS011;10194;50.824;7.134;2023-05-10T02:40:09;130.40;;;66.40;;
20067;SDS011;10194;50.824;7.134;2023-05-10T02:42:37;129.57;;;66.83;;
20067;SDS011;10194;50.824;7.134;2023-05-10T02:45:07;133.33;;;67.33;;
20067;SDS011;10194;50.824;7.134;2023-05-10T02:47:37;135.00;;;67.57;;
20067;SDS011;10194;50.824;7.134;2023-05-10T02:50:03;130.93;;;67.00;;
20067;SDS011;10194;50.824;7.134;2023-05-10T02:52:30;129.03;;;66.37;;
20067;SDS011;10194;50.824;7.134;2023-05-10T02:55:20;131.47;;;66.90;;
20067;SDS011;10194;50.824;7.134;2023-05-10T02:57:51;130.20;;;66.60;;
20067;SDS011;10194;50.824;7.134;2023-05-10T03:00:21;135.47;;;67.00;;
20067;SDS011;10194;50.824;7.134;2023-05-10T03:02:47;133.07;;;67.70;;
20067;SDS011;10194;50.824;7.134;2023-05-10T03:05:13;132.47;;;67.07;;
20067;SDS011;10194;50.824;7.134;2023-05-10T03:07:39;133.50;;;67.80;;
20067;SDS011;10194;50.824;7.134;2023-05-10T03:10:05;130.50;;;67.07;;
20067;SDS011;10194;50.824;7.134;2023-05-10T03:12:36;132.37;;;67.47;;
20067;SDS011;10194;50.824;7.134;2023-05-10T03:15:57;132.73;;;68.00;;
20067;SDS011;10194;50.824;7.134;2023-05-10T03:18:20;133.03;;;68.07;;
20067;SDS011;10194;50.824;7.134;2023-05-10T03:20:50;131.03;;;67.47;;
20067;SDS011;10194;50.824;7.134;2023-05-10T03:25:55;134.87;;;68.17;;
20067;SDS011;10194;50.824;7.134;2023-05-10T03:28:21;133.70;;;68.07;;
20067;SDS011;10194;50.824;7.134;2023-05-10T03:30:52;138.80;;;68.93;;
20067;SDS011;10194;50.824;7.134;2023-05-10T03:33:19;134.43;;;68.90;;
20067;SDS011;10194;50.824;7.134;2023-05-10T03:35:45;134.73;;;69.43;;
20067;SDS011;10194;50.824;7.134;2023-05-10T03:38:12;136.77;;;70.63;;
20067;SDS011;10194;50.824;7.134;2023-05-10T03:40:38;137.57;;;69.97;;
20067;SDS011;10194;50.824;7.134;2023-05-10T03:43:04;137.77;;;70.40;;
20067;SDS011;10194;50.824;7.134;2023-05-10T03:45:30;139.43;;;71.03;;
20067;SDS011;10194;50.824;7.134;2023-05-10T03:47:56;140.10;;;71.67;;
20067;SDS011;10194;50.824;7.134;2023-05-10T03:50:23;140.80;;;72.40;;
20067;SDS011;10194;50.824;7.134;2023-05-10T03:52:49;144.07;;;72.80;;
20067;SDS011;10194;50.824;7.134;2023-05-10T03:55:15;143.13;;;72.57;;
20067;SDS011;10194;50.824;7.134;2023-05-10T03:57:41;143.77;;;73.43;;
20067;SDS011;10194;50.824;7.134;2023-05-10T04:00:07;150.40;;;74.93;;
20067;SDS011;10194;50.824;7.134;2023-05-10T04:02:34;149.43;;;75.03;;
20067;SDS011;10194;50.824;7.134;2023-05-10T04:05:00;149.07;;;75.57;;
20067;SDS011;10194;50.824;7.134;2023-05-10T04:07:27;146.90;;;74.33;;
20067;SDS011;10194;50.824;7.134;2023-05-10T04:09:53;145.80;;;74.17;;
20067;SDS011;10194;50.824;7.134;2023-05-10T04:12:20;146.00;;;75.13;;
20067;SDS011;10194;50.824;7.134;2023-05-10T04:14:45;148.90;;;74.40;;
20067;SDS011;10194;50.824;7.134;2023-05-10T04:17:11;147.37;;;75.47;;
20067;SDS011;10194;50.824;7.134;2023-05-10T04:19:37;148.07;;;75.47;;
20067;SDS011;10194;50.824;7.134;2023-05-10T04:22:03;148.57;;;74.53;;
20067;SDS011;10194;50.824;7.134;2023-05-10T04:24:29;150.13;;;75.60;;
20067;SDS011;10194;50.824;7.134;2023-05-10T04:26:54;150.47;;;75.17;;
20067;SDS011;10194;50.824;7.134;2023-05-10T04:29:20;156.17;;;77.37;;
20067;SDS011;10194;50.824;7.134;2023-05-10T04:31:46;147.17;;;74.63;;
20067;SDS011;10194;50.824;7.134;2023-05-10T04:34:12;146.17;;;75.17;;
20067;SDS011;10194;50.824;7.134;2023-05-10T04:36:37;145.10;;;74.80;;
20067;SDS011;10194;50.824;7.134;2023-05-10T04:39:03;148.23;;;74.13;;
20067;SDS011;10194;50.824;7.134;2023-05-10T04:41:29;146.83;;;74.47;;
20067;SDS011;10194;50.824;7.134;2023-05-10T04:43:55;145.93;;;74.53;;
20067;SDS011;10194;50.824;7.134;2023-05-10T04:46:21;149.37;;;74.23;;
20067;SDS011;10194;50.824;7.134;2023-05-10T04:48:47;150.20;;;74.53;;
20067;SDS011;10194;50.824;7.134;2023-05-10T04:51:13;150.67;;;75.87;;
20067;SDS011;10194;50.824;7.134;2023-05-10T04:53:39;148.87;;;75.10;;
20067;SDS011;10194;50.824;7.134;2023-05-10T04:56:04;152.43;;;76.07;;
20067;SDS011;10194;50.824;7.134;2023-05-10T04:58:31;153.77;;;75.07;;
20067;SDS011;10194;50.824;7.134;2023-05-10T05:00:56;153.43;;;75.93;;
20067;SDS011;10194;50.824;7.134;2023-05-10T05:03:22;148.47;;;75.23;;
20067;SDS011;10194;50.824;7.134;2023-05-10T05:05:48;150.77;;;76.03;;
20067;SDS011;10194;50.824;7.134;2023-05-10T05:08:13;151.07;;;76.70;;
20067;SDS011;10194;50.824;7.134;2023-05-10T05:10:39;150.73;;;75.83;;
20067;SDS011;10194;50.824;7.134;2023-05-10T05:13:05;147.63;;;76.23;;
20067;SDS011;10194;50.824;7.134;2023-05-10T05:15:31;153.17;;;77.07;;
20067;SDS011;10194;50.824;7.134;2023-05-10T05:17:56;151.30;;;75.43;;
20067;SDS011;10194;50.824;7.134;2023-05-10T05:20:22;155.17;;;78.00;;
20067;SDS011;10194;50.824;7.134;2023-05-10T05:22:48;153.03;;;76.90;;
20067;SDS011;10194;50.824;7.134;2023-05-10T05:25:14;148.23;;;75.83;;
20067;SDS011;10194;50.824;7.134;2023-05-10T05:27:40;147.13;;;76.37;;
20067;SDS011;10194;50.824;7.134;2023-05-10T05:30:06;151.87;;;76.97;;
20067;SDS011;10194;50.824;7.134;2023-05-10T05:32:33;151.70;;;76.60;;
20067;SDS011;10194;50.824;7.134;2023-05-10T05:34:59;148.47;;;76.63;;
20067;SDS011;10194;50.824;7.134;2023-05-10T05:37:25;150.87;;;76.67;;
20067;SDS011;10194;50.824;7.134;2023-05-10T05:39:51;149.30;;;77.00;;
20067;SDS011;10194;50.824;7.134;2023-05-10T05:42:17;152.50;;;77.67;;
20067;SDS011;10194;50.824;7.134;2023-05-10T05:44:43;156.37;;;78.63;;
20067;SDS011;10194;50.824;7.134;2023-05-10T05:47:09;152.67;;;77.77;;
20067;SDS011;10194;50.824;7.134;2023-05-10T05:49:35;154.47;;;78.50;;
20067;SDS011;10194;50.824;7.134;2023-05-10T05:52:02;152.63;;;77.57;;
20067;SDS011;10194;50.824;7.134;2023-05-10T05:54:29;151.47;;;77.33;;
20067;SDS011;10194;50.824;7.134;2023-05-10T05:56:59;149.97;;;77.20;;
20067;SDS011;10194;50.824;7.134;2023-05-10T05:59:26;159.50;;;80.57;;
20067;SDS011;10194;50.824;7.134;2023-05-10T06:01:52;152.87;;;78.67;;
20067;SDS011;10194;50.824;7.134;2023-05-10T06:04:18;153.47;;;78.30;;
20067;SDS011;10194;50.824;7.134;2023-05-10T06:06:44;154.40;;;79.27;;
20067;SDS011;10194;50.824;7.134;2023-05-10T06:09:10;151.87;;;78.57;;
20067;SDS011;10194;50.824;7.134;2023-05-10T06:11:37;151.77;;;78.07;;
20067;SDS011;10194;50.824;7.134;2023-05-10T06:14:03;152.53;;;78.13;;
20067;SDS011;10194;50.824;7.134;2023-05-10T06:16:32;149.60;;;78.27;;
20067;SDS011;10194;50.824;7.134;2023-05-10T06:18:58;148.80;;;78.30;;
20067;SDS011;10194;50.824;7.134;2023-05-10T06:21:23;149.00;;;78.47;;
20067;SDS011;10194;50.824;7.134;2023-05-10T06:23:50;151.70;;;78.87;;
20067;SDS011;10194;50.824;7.134;2023-05-10T06:26:16;152.80;;;80.37;;
20067;SDS011;10194;50.824;7.134;2023-05-10T06:28:42;150.20;;;79.23;;
20067;SDS011;10194;50.824;7.134;2023-05-10T06:31:07;154.53;;;78.87;;
20067;SDS011;10194;50.824;7.134;2023-05-10T06:33:33;148.70;;;77.70;;
20067;SDS011;10194;50.824;7.134;2023-05-10T06:35:59;148.37;;;77.23;;
20067;SDS011;10194;50.824;7.134;2023-05-10T06:38:25;145.40;;;76.50;;
20067;SDS011;10194;50.824;7.134;2023-05-10T06:40:51;145.03;;;76.93;;
20067;SDS011;10194;50.824;7.134;2023-05-10T06:43:17;147.13;;;76.70;;
20067;SDS011;10194;50.824;7.134;2023-05-10T06:45:43;148.83;;;77.07;;
20067;SDS011;10194;50.824;7.134;2023-05-10T06:48:08;147.43;;;76.13;;
20067;SDS011;10194;50.824;7.134;2023-05-10T06:50:34;143.10;;;75.37;;
20067;SDS011;10194;50.824;7.134;2023-05-10T06:53:00;144.47;;;76.40;;
20067;SDS011;10194;50.824;7.134;2023-05-10T06:55:29;146.97;;;77.80;;
20067;SDS011;10194;50.824;7.134;2023-05-10T06:57:55;146.67;;;76.87;;
20067;SDS011;10194;50.824;7.134;2023-05-10T07:00:20;147.17;;;76.27;;
20067;SDS011;10194;50.824;7.134;2023-05-10T07:02:46;148.40;;;77.27;;
20067;SDS011;10194;50.824;7.134;2023-05-10T07:05:12;144.67;;;75.83;;
20067;SDS011;10194;50.824;7.134;2023-05-10T07:07:39;147.17;;;76.90;;
20067;SDS011;10194;50.824;7.134;2023-05-10T07:10:05;144.87;;;77.13;;
20067;SDS011;10194;50.824;7.134;2023-05-10T07:12:32;147.00;;;77.73;;
20067;SDS011;10194;50.824;7.134;2023-05-10T07:14:57;148.57;;;77.77;;
20067;SDS011;10194;50.824;7.134;2023-05-10T07:17:23;146.17;;;76.03;;
20067;SDS011;10194;50.824;7.134;2023-05-10T07:19:49;145.87;;;75.70;;
20067;SDS011;10194;50.824;7.134;2023-05-10T07:22:15;148.40;;;75.70;;
20067;SDS011;10194;50.824;7.134;2023-05-10T07:24:41;147.80;;;76.60;;
20067;SDS011;10194;50.824;7.134;2023-05-10T07:27:08;145.53;;;75.40;;
20067;SDS011;10194;50.824;7.134;2023-05-10T07:29:34;148.03;;;75.83;;
20067;SDS011;10194;50.824;7.134;2023-05-10T07:32:00;142.33;;;73.70;;
20067;SDS011;10194;50.824;7.134;2023-05-10T07:34:26;141.53;;;74.57;;
20067;SDS011;10194;50.824;7.134;2023-05-10T07:36:53;138.63;;;72.97;;
20067;SDS011;10194;50.824;7.134;2023-05-10T07:39:18;148.57;;;75.73;;
20067;SDS011;10194;50.824;7.134;2023-05-10T07:41:45;142.30;;;75.00;;
20067;SDS011;10194;50.824;7.134;2023-05-10T07:44:11;142.70;;;72.87;;
20067;SDS011;10194;50.824;7.134;2023-05-10T07:46:37;139.37;;;72.27;;
20067;SDS011;10194;50.824;7.134;2023-05-10T07:49:03;142.80;;;73.07;;
20067;SDS011;10194;50.824;7.134;2023-05-10T07:51:29;142.17;;;72.77;;
20067;SDS011;10194;50.824;7.134;2023-05-10T07:53:54;144.37;;;73.37;;
20067;SDS011;10194;50.824;7.134;2023-05-10T07:58:58;140.43;;;72.60;;
20067;SDS011;10194;50.824;7.134;2023-05-10T08:01:25;141.80;;;73.10;;
20067;SDS011;10194;50.824;7.134;2023-05-10T08:03:51;140.43;;;73.03;;
20067;SDS011;10194;50.824;7.134;2023-05-10T08:06:18;140.63;;;73.03;;
20067;SDS011;10194;50.824;7.134;2023-05-10T08:08:45;141.97;;;73.40;;
20067;SDS011;10194;50.824;7.134;2023-05-10T08:11:15;141.30;;;73.10;;
20067;SDS011;10194;50.824;7.134;2023-05-10T08:13:45;143.30;;;73.40;;
20067;SDS011;10194;50.824;7.134;2023-05-10T08:16:12;139.23;;;73.23;;
20067;SDS011;10194;50.824;7.134;2023-05-10T08:18:38;142.20;;;72.80;;
20067;SDS011;10194;50.824;7.134;2023-05-10T08:21:04;141.60;;;73.53;;
20067;SDS011;10194;50.824;7.134;2023-05-10T08:23:31;138.90;;;71.77;;
20067;SDS011;10194;50.824;7.134;2023-05-10T08:25:56;138.13;;;71.70;;
20067;SDS011;10194;50.824;7.134;2023-05-10T08:28:22;136.80;;;71.43;;
20067;SDS011;10194;50.824;7.134;2023-05-10T08:30:49;138.20;;;72.10;;
20067;SDS011;10194;50.824;7.134;2023-05-10T08:33:15;136.80;;;71.73;;
20067;SDS011;10194;50.824;7.134;2023-05-10T08:35:43;137.80;;;72.57;;
20067;SDS011;10194;50.824;7.134;2023-05-10T08:38:08;136.47;;;72.30;;
20067;SDS011;10194;50.824;7.134;2023-05-10T08:40:34;137.23;;;72.17;;
20067;SDS011;10194;50.824;7.134;2023-05-10T08:43:04;136.40;;;72.37;;
20067;SDS011;10194;50.824;7.134;2023-05-10T08:45:33;137.87;;;72.13;;
20067;SDS011;10194;50.824;7.134;2023-05-10T08:48:07;138.13;;;73.50;;
20067;SDS011;10194;50.824;7.134;2023-05-10T08:50:38;139.17;;;72.13;;
20067;SDS011;10194;50.824;7.134;2023-05-10T08:53:08;138.97;;;74.23;;
20067;SDS011;10194;50.824;7.134;2023-05-10T08:55:37;137.60;;;73.47;;
20067;SDS011;10194;50.824;7.134;2023-05-10T08:58:05;138.00;;;73.93;;
20067;SDS011;10194;50.824;7.134;2023-05-10T09:00:32;138.90;;;74.90;;
20067;SDS011;10194;50.824;7.134;2023-05-10T09:02:59;136.33;;;73.70;;
20067;SDS011;10194;50.824;7.134;2023-05-10T09:05:26;136.37;;;74.00;;
20067;SDS011;10194;50.824;7.134;2023-05-10T09:07:52;139.40;;;75.10;;
20067;SDS011;10194;50.824;7.134;2023-05-10T09:10:18;139.40;;;74.70;;
20067;SDS011;10194;50.824;7.134;2023-05-10T09:12:45;136.13;;;74.03;;
20067;SDS011;10194;50.824;7.134;2023-05-10T09:15:12;140.63;;;74.47;;
20067;SDS011;10194;50.824;7.134;2023-05-10T09:17:41;136.63;;;73.07;;
20067;SDS011;10194;50.824;7.134;2023-05-10T09:20:09;136.10;;;70.47;;
20067;SDS011;10194;50.824;7.134;2023-05-10T09:22:35;132.73;;;70.03;;
20067;SDS011;10194;50.824;7.134;2023-05-10T09:25:08;132.53;;;70.10;;
20067;SDS011;10194;50.824;7.134;2023-05-10T09:27:36;131.00;;;69.23;;
20067;SDS011;10194;50.824;7.134;2023-05-10T09:30:04;135.80;;;70.20;;
20067;SDS011;10194;50.824;7.134;2023-05-10T09:35:12;133.57;;;70.97;;
20067;SDS011;10194;50.824;7.134;2023-05-10T09:37:40;136.27;;;71.03;;
20067;SDS011;10194;50.824;7.134;2023-05-10T09:40:12;135.80;;;71.23;;
20067;SDS011;10194;50.824;7.134;2023-05-10T09:42:42;135.30;;;71.07;;
20067;SDS011;10194;50.824;7.134;2023-05-10T09:45:16;138.03;;;71.60;;
20067;SDS011;10194;50.824;7.134;2023-05-10T09:47:42;135.13;;;70.80;;
20067;SDS011;10194;50.824;7.134;2023-05-10T09:50:07;133.07;;;70.07;;
20067;SDS011;10194;50.824;7.134;2023-05-10T09:52:47;136.80;;;70.10;;
20067;SDS011;10194;50.824;7.134;2023-05-10T09:55:22;133.20;;;69.87;;
20067;SDS011;10194;50.824;7.134;2023-05-10T09:58:03;133.80;;;69.53;;
20067;SDS011;10194;50.824;7.134;2023-05-10T10:00:34;137.33;;;70.70;;
20067;SDS011;10194;50.824;7.134;2023-05-10T10:03:17;136.33;;;70.60;;
20067;SDS011;10194;50.824;7.134;2023-05-10T10:05:45;133.20;;;69.93;;
20067;SDS011;10194;50.824;7.134;2023-05-10T10:08:13;135.77;;;70.70;;
20067;SDS011;10194;50.824;7.134;2023-05-10T10:10:41;136.30;;;71.30;;
20067;SDS011;10194;50.824;7.134;2023-05-10T10:13:09;140.43;;;72.37;;
20067;SDS011;10194;50.824;7.134;2023-05-10T10:15:35;140.73;;;72.77;;
20067;SDS011;10194;50.824;7.134;2023-05-10T10:18:02;137.47;;;71.87;;
20067;SDS011;10194;50.824;7.134;2023-05-10T10:20:31;144.37;;;74.33;;
20067;SDS011;10194;50.824;7.134;2023-05-10T10:22:57;143.67;;;74.37;;
20067;SDS011;10194;50.824;7.134;2023-05-10T10:25:23;145.57;;;75.53;;
20067;SDS011;10194;50.824;7.134;2023-05-10T10:30:41;145.33;;;76.10;;
20067;SDS011;10194;50.824;7.134;2023-05-10T10:36:11;143.63;;;77.03;;
20067;SDS011;10194;50.824;7.134;2023-05-10T10:44:24;142.17;;;76.80;;
20067;SDS011;10194;50.824;7.134;2023-05-10T10:49:49;141.47;;;77.13;;
20067;SDS011;10194;50.824;7.134;2023-05-10T10:52:32;140.90;;;77.10;;
20067;SDS011;10194;50.824;7.134;2023-05-10T11:05:41;143.13;;;76.93;;
20067;SDS011;10194;50.824;7.134;2023-05-10T11:13:29;144.47;;;76.97;;
20067;SDS011;10194;50.824;7.134;2023-05-10T11:16:09;143.27;;;76.43;;
20067;SDS011;10194;50.824;7.134;2023-05-10T11:18:36;142.50;;;76.30;;
20067;SDS011;10194;50.824;7.134;2023-05-10T11:21:02;141.63;;;77.00;;
20067;SDS011;10194;50.824;7.134;2023-05-10T11:23:47;140.30;;;78.97;;
20067;SDS011;10194;50.824;7.134;2023-05-10T11:26:16;138.07;;;77.93;;
20067;SDS011;10194;50.824;7.134;2023-05-10T11:31:14;138.43;;;78.23;;
20067;SDS011;10194;50.824;7.134;2023-05-10T11:36:12;143.37;;;82.20;;
20067;SDS011;10194;50.824;7.134;2023-05-10T11:38:42;149.10;;;83.13;;
20067;SDS011;10194;50.824;7.134;2023-05-10T11:41:09;139.17;;;78.87;;
20067;SDS011;10194;50.824;7.134;2023-05-10T11:43:36;148.80;;;83.60;;
20067;SDS011;10194;50.824;7.134;2023-05-10T11:46:05;138.07;;;79.90;;
20067;SDS011;10194;50.824;7.134;2023-05-10T11:48:39;141.60;;;78.77;;
20067;SDS011;10194;50.824;7.134;2023-05-10T11:51:07;139.67;;;78.30;;
20067;SDS011;10194;50.824;7.134;2023-05-10T11:53:33;136.73;;;77.03;;
20067;SDS011;10194;50.824;7.134;2023-05-10T11:56:03;137.80;;;76.87;;
20067;SDS011;10194;50.824;7.134;2023-05-10T11:58:35;138.00;;;77.90;;
20067;SDS011;10194;50.824;7.134;2023-05-10T12:01:03;136.93;;;77.47;;
20067;SDS011;10194;50.824;7.134;2023-05-10T12:03:30;138.33;;;77.40;;
20067;SDS011;10194;50.824;7.134;2023-05-10T12:05:56;143.97;;;79.27;;
20067;SDS011;10194;50.824;7.134;2023-05-10T12:08:27;135.13;;;77.30;;
20067;SDS011;10194;50.824;7.134;2023-05-10T12:11:05;142.00;;;78.10;;
20067;SDS011;10194;50.824;7.134;2023-05-10T12:13:40;137.70;;;76.33;;
20067;SDS011;10194;50.824;7.134;2023-05-10T12:16:17;137.20;;;76.93;;
20067;SDS011;10194;50.824;7.134;2023-05-10T12:18:44;136.57;;;76.30;;
20067;SDS011;10194;50.824;7.134;2023-05-10T12:21:10;138.27;;;76.73;;
20067;SDS011;10194;50.824;7.134;2023-05-10T12:23:40;137.63;;;77.87;;
20067;SDS011;10194;50.824;7.134;2023-05-10T12:26:08;136.53;;;77.97;;
20067;SDS011;10194;50.824;7.134;2023-05-10T12:28:35;137.70;;;77.43;;
20067;SDS011;10194;50.824;7.134;2023-05-10T12:31:02;137.90;;;79.00;;
20067;SDS011;10194;50.824;7.134;2023-05-10T12:33:35;135.67;;;76.93;;
20067;SDS011;10194;50.824;7.134;2023-05-10T12:36:08;137.17;;;78.17;;
20067;SDS011;10194;50.824;7.134;2023-05-10T12:41:17;137.00;;;78.40;;
20067;SDS011;10194;50.824;7.134;2023-05-10T12:43:43;138.67;;;79.67;;
20067;SDS011;10194;50.824;7.134;2023-05-10T12:46:13;139.20;;;79.63;;
20067;SDS011;10194;50.824;7.134;2023-05-10T12:48:42;136.97;;;78.67;;
20067;SDS011;10194;50.824;7.134;2023-05-10T12:51:09;137.47;;;77.53;;
20067;SDS011;10194;50.824;7.134;2023-05-10T12:53:37;137.07;;;76.43;;
20067;SDS011;10194;50.824;7.134;2023-05-10T12:56:04;136.83;;;76.13;;
20067;SDS011;10194;50.824;7.134;2023-05-10T12:58:30;137.13;;;77.17;;
20067;SDS011;10194;50.824;7.134;2023-05-10T13:00:57;142.07;;;78.00;;
20067;SDS011;10194;50.824;7.134;2023-05-10T13:03:24;136.90;;;75.90;;
20067;SDS011;10194;50.824;7.134;2023-05-10T13:05:49;138.37;;;78.03;;
20067;SDS011;10194;50.824;7.134;2023-05-10T13:08:15;138.23;;;77.87;;
20067;SDS011;10194;50.824;7.134;2023-05-10T13:10:41;135.90;;;77.33;;
20067;SDS011;10194;50.824;7.134;2023-05-10T13:13:07;137.03;;;77.43;;
20067;SDS011;10194;50.824;7.134;2023-05-10T13:15:33;196.70;;;96.67;;
20067;SDS011;10194;50.824;7.134;2023-05-10T13:17:59;145.87;;;81.90;;
20067;SDS011;10194;50.824;7.134;2023-05-10T13:20:25;138.73;;;81.70;;
20067;SDS011;10194;50.824;7.134;2023-05-10T13:22:52;149.93;;;84.60;;
20067;SDS011;10194;50.824;7.134;2023-05-10T13:25:18;140.63;;;80.33;;
20067;SDS011;10194;50.824;7.134;2023-05-10T13:27:44;137.27;;;79.57;;
20067;SDS011;10194;50.824;7.134;2023-05-10T13:30:10;138.67;;;80.37;;
20067;SDS011;10194;50.824;7.134;2023-05-10T13:32:37;138.77;;;79.23;;
20067;SDS011;10194;50.824;7.134;2023-05-10T13:35:03;138.27;;;78.10;;
20067;SDS011;10194;50.824;7.134;2023-05-10T13:37:30;134.47;;;75.30;;
20067;SDS011;10194;50.824;7.134;2023-05-10T13:39:57;137.03;;;76.03;;
20067;SDS011;10194;50.824;7.134;2023-05-10T13:42:23;135.37;;;75.40;;
20067;SDS011;10194;50.824;7.134;2023-05-10T13:44:51;138.27;;;77.37;;
20067;SDS011;10194;50.824;7.134;2023-05-10T13:47:21;138.27;;;76.17;;
20067;SDS011;10194;50.824;7.134;2023-05-10T13:49:47;136.40;;;75.87;;
20067;SDS011;10194;50.824;7.134;2023-05-10T13:52:12;139.33;;;75.80;;
20067;SDS011;10194;50.824;7.134;2023-05-10T13:54:38;142.10;;;77.17;;
20067;SDS011;10194;50.824;7.134;2023-05-10T13:57:05;138.60;;;76.90;;
20067;SDS011;10194;50.824;7.134;2023-05-10T13:59:41;146.43;;;79.07;;
20067;SDS011;10194;50.824;7.134;2023-05-10T14:02:07;138.50;;;76.27;;
20067;SDS011;10194;50.824;7.134;2023-05-10T14:04:33;135.80;;;75.33;;
20067;SDS011;10194;50.824;7.134;2023-05-10T14:07:00;136.83;;;75.53;;
20067;SDS011;10194;50.824;7.134;2023-05-10T14:09:26;139.07;;;76.53;;
20067;SDS011;10194;50.824;7.134;2023-05-10T14:11:51;138.47;;;74.73;;
20067;SDS011;10194;50.824;7.134;2023-05-10T14:14:18;137.53;;;75.47;;
20067;SDS011;10194;50.824;7.134;2023-05-10T14:16:44;134.70;;;74.40;;
20067;SDS011;10194;50.824;7.134;2023-05-10T14:19:12;135.23;;;74.30;;
20067;SDS011;10194;50.824;7.134;2023-05-10T14:21:37;134.17;;;73.97;;
20067;SDS011;10194;50.824;7.134;2023-05-10T14:24:03;142.73;;;77.73;;
20067;SDS011;10194;50.824;7.134;2023-05-10T14:26:30;133.80;;;73.70;;
20067;SDS011;10194;50.824;7.134;2023-05-10T14:28:56;143.93;;;75.53;;
20067;SDS011;10194;50.824;7.134;2023-05-10T14:31:21;136.93;;;74.87;;
20067;SDS011;10194;50.824;7.134;2023-05-10T14:33:49;134.77;;;74.53;;
20067;SDS011;10194;50.824;7.134;2023-05-10T14:36:15;137.80;;;76.20;;
20067;SDS011;10194;50.824;7.134;2023-05-10T14:38:42;137.37;;;75.00;;
20067;SDS011;10194;50.824;7.134;2023-05-10T14:41:08;137.27;;;75.60;;
20067;SDS011;10194;50.824;7.134;2023-05-10T14:43:34;137.80;;;75.50;;
20067;SDS011;10194;50.824;7.134;2023-05-10T14:46:00;137.13;;;75.60;;
20067;SDS011;10194;50.824;7.134;2023-05-10T14:48:26;135.13;;;74.83;;
20067;SDS011;10194;50.824;7.134;2023-05-10T14:50:51;135.67;;;74.60;;
20067;SDS011;10194;50.824;7.134;2023-05-10T14:53:17;134.37;;;74.20;;
20067;SDS011;10194;50.824;7.134;2023-05-10T14:55:43;144.17;;;79.20;;
20067;SDS011;10194;50.824;7.134;2023-05-10T14:58:09;138.20;;;75.83;;
20067;SDS011;10194;50.824;7.134;2023-05-10T15:00:35;136.60;;;75.23;;
20067;SDS011;10194;50.824;7.134;2023-05-10T15:03:01;140.57;;;76.63;;
20067;SDS011;10194;50.824;7.134;2023-05-10T15:05:27;136.90;;;75.60;;
20067;SDS011;10194;50.824;7.134;2023-05-10T15:07:53;139.53;;;76.43;;